Time;durP1;ratioP1;P1;durP2;ratioP2;P2;SDS_P1;SDS_P2;PMS_P1;PMS_P2;Temp;Humidity;BMP_temperature;BMP_pressure;BME280_temperature;BME280_humidity;BME280_pressure;Samples;Min_cycle;Max_cycle;Signal;HPM_P1;HPM_P2
2021/12/16 00:04:42;;;;;;;27.35;17.92;;;8.60;99.90;;;;;;4954548;29;20193;-62
2021/12/16 00:07:15;;;;;;;30.20;18.85;;;8.60;99.90;;;;;;5033398;28;20289;-62
2021/12/16 00:09:52;;;;;;;23.48;16.55;;;8.60;99.90;;;;;;5034030;28;20186;-62
2021/12/16 00:31:55;;;;;;;28.30;18.95;;;8.50;99.90;;;;;;5017563;28;20249;-61
2021/12/16 00:34:30;;;;;;;32.13;20.60;;;8.50;99.90;;;;;;5038361;28;20226;-61
2021/12/16 00:36:58;;;;;;;27.50;18.50;;;8.40;99.90;;;;;;5037951;28;20642;-61
2021/12/16 00:39:28;;;;;;;28.98;20.35;;;8.40;99.90;;;;;;5037900;28;20229;-61
2021/12/16 00:42:01;;;;;;;27.50;20.38;;;8.40;99.90;;;;;;5037860;28;20208;-62
2021/12/16 00:45:05;;;;;;;30.25;20.02;;;8.40;99.90;;;;;;5037279;28;20222;-61
2021/12/16 00:47:46;;;;;;;34.15;19.90;;;8.40;99.90;;;;;;5037139;28;20198;-62
2021/12/16 00:54:09;;;;;;;36.70;21.75;;;8.30;99.90;;;;;;5036793;28;20187;-62
2021/12/16 00:56:00;;;;;;;32.53;20.50;;;8.20;99.90;;;;;;5036661;28;20225;-62
2021/12/16 00:58:33;;;;;;;32.10;20.65;;;8.20;99.90;;;;;;5036998;28;20206;-69
2021/12/16 01:01:11;;;;;;;34.72;20.70;;;8.10;99.90;;;;;;5037131;28;20190;-63
2021/12/16 01:03:45;;;;;;;36.65;20.77;;;8.10;99.90;;;;;;5036635;28;20277;-62
2021/12/16 01:06:38;;;;;;;37.45;22.50;;;8.10;99.90;;;;;;5036841;28;20260;-62
2021/12/16 01:09:44;;;;;;;36.63;22.17;;;8.10;99.90;;;;;;5038686;28;20202;-61
2021/12/16 01:34:27;;;;;;;31.45;19.55;;;8.00;99.90;;;;;;5039506;28;20209;-63
2021/12/16 01:37:27;;;;;;;31.80;19.63;;;8.00;99.90;;;;;;5041240;28;20187;-63
2021/12/16 01:40:20;;;;;;;26.55;18.13;;;8.00;99.90;;;;;;5039459;28;20230;-61
2021/12/16 01:51:15;;;;;;;26.08;17.75;;;8.10;99.90;;;;;;5015560;28;20205;-62
2021/12/16 01:56:41;;;;;;;23.92;16.40;;;8.10;99.90;;;;;;5028946;28;20613;-61
2021/12/16 01:59:10;;;;;;;23.70;15.63;;;8.10;99.90;;;;;;5035970;28;20182;-61
2021/12/16 02:01:39;;;;;;;26.73;16.25;;;8.10;99.90;;;;;;5035586;28;20693;-62
2021/12/16 02:04:15;;;;;;;22.80;15.00;;;8.10;99.90;;;;;;5035331;28;20206;-62
2021/12/16 02:07:01;;;;;;;18.73;14.48;;;8.20;99.90;;;;;;5035672;28;20266;-62
2021/12/16 02:09:34;;;;;;;21.15;14.30;;;8.20;99.90;;;;;;5035054;28;20639;-63
2021/12/16 02:12:10;;;;;;;26.90;15.32;;;8.20;99.90;;;;;;5035064;28;20198;-63
2021/12/16 02:28:41;;;;;;;20.67;14.00;;;8.40;99.90;;;;;;5034836;28;20217;-63
2021/12/16 02:31:26;;;;;;;19.77;13.52;;;8.40;99.90;;;;;;5034887;28;20285;-63
2021/12/16 02:34:24;;;;;;;21.58;14.57;;;8.40;99.90;;;;;;5034487;28;20246;-62
2021/12/16 02:36:54;;;;;;;19.08;12.35;;;8.40;99.90;;;;;;5034984;28;20241;-64
2021/12/16 02:39:24;;;;;;;17.27;11.95;;;8.40;99.90;;;;;;5034775;28;20690;-62
2021/12/16 02:41:54;;;;;;;19.67;12.45;;;8.40;99.90;;;;;;5034992;28;20191;-62
2021/12/16 02:49:51;;;;;;;21.88;14.23;;;8.40;99.90;;;;;;5034834;28;20181;-61
2021/12/16 02:52:22;;;;;;;19.67;12.85;;;8.40;99.90;;;;;;5034769;28;20285;-62
2021/12/16 02:54:49;;;;;;;18.92;12.90;;;8.50;99.90;;;;;;5035066;28;20226;-63
2021/12/16 02:57:18;;;;;;;21.70;13.50;;;8.50;99.90;;;;;;5034557;28;20202;-61
2021/12/16 02:59:47;;;;;;;24.92;14.00;;;8.50;99.90;;;;;;5034809;28;20551;-62
2021/12/16 03:02:17;;;;;;;19.65;13.10;;;8.60;99.90;;;;;;5034816;28;20654;-62
2021/12/16 03:04:46;;;;;;;19.08;13.20;;;8.60;99.90;;;;;;5034147;28;20272;-61
2021/12/16 03:07:14;;;;;;;22.48;13.05;;;8.60;99.90;;;;;;5034534;28;20210;-62
2021/12/16 03:15:42;;;;;;;20.38;14.60;;;8.60;99.90;;;;;;4986935;28;20284;-62
2021/12/16 03:18:11;;;;;;;22.85;14.55;;;8.70;99.90;;;;;;5034476;28;20209;-63
2021/12/16 03:20:43;;;;;;;22.13;15.68;;;8.70;99.90;;;;;;5033812;28;20234;-62
2021/12/16 03:23:33;;;;;;;25.13;15.10;;;8.70;99.90;;;;;;5034838;28;20190;-62
2021/12/16 03:26:31;;;;;;;21.75;15.35;;;8.70;99.90;;;;;;5034783;28;20226;-62
2021/12/16 03:31:54;;;;;;;27.70;15.90;;;8.70;99.90;;;;;;5020773;28;20276;-63
2021/12/16 03:34:40;;;;;;;21.13;15.10;;;8.70;99.90;;;;;;5034206;28;20325;-63
2021/12/16 03:37:18;;;;;;;25.35;16.25;;;8.70;99.90;;;;;;5034235;28;20201;-62
2021/12/16 03:39:50;;;;;;;25.75;17.05;;;8.70;99.90;;;;;;5034348;28;20186;-61
2021/12/16 03:42:23;;;;;;;29.05;16.88;;;8.80;99.90;;;;;;5034216;28;20194;-61
2021/12/16 03:44:56;;;;;;;30.08;17.35;;;8.80;99.90;;;;;;5034977;28;20229;-62
2021/12/16 03:47:30;;;;;;;26.50;17.88;;;8.80;99.90;;;;;;5035361;28;20201;-62
2021/12/16 03:49:57;;;;;;;28.90;18.60;;;8.80;99.90;;;;;;5036428;28;20191;-62
2021/12/16 03:52:25;;;;;;;31.88;18.80;;;8.80;99.90;;;;;;5035304;28;20575;-61
2021/12/16 03:54:55;;;;;;;29.58;17.85;;;8.80;99.90;;;;;;5034167;28;20226;-62
2021/12/16 03:57:25;;;;;;;31.75;19.00;;;8.80;99.90;;;;;;5034005;28;20670;-63
2021/12/16 03:59:53;;;;;;;35.38;20.60;;;8.90;99.90;;;;;;5033476;28;20661;-62
2021/12/16 04:02:23;;;;;;;36.30;21.85;;;8.90;99.90;;;;;;5033745;28;20206;-62
2021/12/16 04:04:52;;;;;;;34.30;21.88;;;8.90;99.90;;;;;;5033568;28;20218;-62
2021/12/16 04:09:07;;;;;;;34.90;21.73;;;8.90;99.90;;;;;;5153481;27;20953;-62
2021/12/16 04:11:41;;;;;;;38.00;22.63;;;9.00;99.90;;;;;;5154236;27;20183;-61
2021/12/16 04:14:11;;;;;;;35.45;21.38;;;9.00;99.90;;;;;;5156362;27;20183;-61
2021/12/16 04:16:41;;;;;;;37.58;22.20;;;9.00;99.90;;;;;;5173897;27;20182;-61
2021/12/16 04:19:12;;;;;;;37.88;22.05;;;9.00;99.90;;;;;;5175028;27;20209;-62
2021/12/16 04:21:40;;;;;;;38.70;22.50;;;9.00;99.90;;;;;;5175234;27;20178;-62
2021/12/16 04:24:09;;;;;;;41.20;23.85;;;9.00;99.90;;;;;;5173226;27;20604;-61
2021/12/16 04:26:38;;;;;;;38.70;22.00;;;9.10;99.90;;;;;;5173377;27;20246;-62
2021/12/16 04:29:06;;;;;;;35.55;22.95;;;9.10;99.90;;;;;;5172986;27;20193;-61
2021/12/16 04:31:34;;;;;;;38.00;23.52;;;9.10;99.90;;;;;;5172893;27;20550;-62
2021/12/16 04:34:01;;;;;;;40.95;24.80;;;9.10;99.90;;;;;;5172880;27;20206;-61
2021/12/16 04:36:29;;;;;;;40.72;25.50;;;9.10;99.90;;;;;;5172904;27;20676;-61
2021/12/16 04:38:56;;;;;;;47.20;25.67;;;9.10;99.90;;;;;;5173816;27;20198;-61
2021/12/16 04:41:27;;;;;;;42.22;25.38;;;9.10;99.90;;;;;;5174093;27;20212;-62
2021/12/16 04:43:56;;;;;;;44.55;26.30;;;9.10;99.90;;;;;;5174662;27;20565;-64
2021/12/16 04:46:27;;;;;;;42.35;26.40;;;9.10;99.90;;;;;;5174440;27;20607;-62
2021/12/16 04:48:56;;;;;;;46.25;27.55;;;9.00;99.90;;;;;;5174475;27;20233;-62
2021/12/16 04:51:27;;;;;;;52.63;27.27;;;9.00;99.90;;;;;;5173028;27;20213;-61
2021/12/16 04:53:54;;;;;;;46.78;29.05;;;9.00;99.90;;;;;;5173221;27;20201;-62
2021/12/16 04:56:21;;;;;;;45.65;28.90;;;8.90;99.90;;;;;;5172856;27;20226;-60
2021/12/16 04:58:52;;;;;;;52.67;31.00;;;8.90;99.90;;;;;;5172696;27;20191;-61
2021/12/16 05:01:20;;;;;;;56.13;31.88;;;8.80;99.90;;;;;;5172450;27;20193;-61
2021/12/16 05:03:47;;;;;;;51.13;30.88;;;8.70;99.90;;;;;;5172468;27;20202;-62
2021/12/16 05:06:14;;;;;;;59.15;32.13;;;8.70;99.90;;;;;;5171964;27;20218;-61
2021/12/16 05:08:42;;;;;;;63.08;31.85;;;8.60;99.90;;;;;;5171988;27;20218;-62
2021/12/16 05:11:13;;;;;;;57.50;29.65;;;8.60;99.90;;;;;;5172097;27;20197;-61
2021/12/16 05:13:40;;;;;;;59.70;32.58;;;8.60;99.90;;;;;;5172492;27;20189;-61
2021/12/16 05:16:09;;;;;;;59.65;32.40;;;8.50;99.90;;;;;;5172059;27;20244;-62
2021/12/16 05:18:38;;;;;;;65.78;33.88;;;8.50;99.90;;;;;;5168267;27;20565;-62
2021/12/16 05:21:08;;;;;;;66.22;34.05;;;8.50;99.90;;;;;;5157957;27;20282;-62
2021/12/16 05:26:22;;;;;;;65.53;33.92;;;8.40;99.90;;;;;;5123073;27;20662;-61
2021/12/16 05:28:53;;;;;;;66.88;32.90;;;8.40;99.90;;;;;;5157871;27;20225;-62
2021/12/16 05:31:22;;;;;;;64.07;34.17;;;8.40;99.90;;;;;;5157857;27;20277;-62
2021/12/16 05:33:51;;;;;;;74.25;37.20;;;8.40;99.90;;;;;;5157939;27;20211;-62
2021/12/16 05:36:18;;;;;;;74.72;36.88;;;8.40;99.90;;;;;;5157641;27;20279;-61
2021/12/16 05:38:45;;;;;;;62.75;36.40;;;8.50;99.90;;;;;;5157760;27;20199;-62
2021/12/16 05:41:17;;;;;;;73.95;35.10;;;8.50;99.90;;;;;;5157693;27;20222;-63
2021/12/16 05:43:44;;;;;;;77.28;37.30;;;8.50;99.90;;;;;;5158311;27;20194;-62
2021/12/16 05:46:13;;;;;;;70.90;35.85;;;8.50;99.90;;;;;;5157430;27;20222;-61
2021/12/16 05:48:45;;;;;;;60.97;35.15;;;8.50;99.90;;;;;;5157419;27;20578;-62
2021/12/16 05:51:16;;;;;;;63.38;36.10;;;8.50;99.90;;;;;;5157623;27;20186;-59
2021/12/16 05:53:45;;;;;;;68.18;35.17;;;8.50;99.90;;;;;;5157498;27;20190;-63
2021/12/16 05:56:13;;;;;;;72.00;36.08;;;8.50;99.90;;;;;;5157601;27;20244;-63
2021/12/16 05:58:40;;;;;;;65.75;36.45;;;8.50;99.90;;;;;;5157600;27;20205;-61
2021/12/16 06:01:10;;;;;;;70.82;34.00;;;8.50;99.90;;;;;;5157448;27;20198;-62
2021/12/16 06:03:37;;;;;;;64.28;35.30;;;8.60;99.90;;;;;;5157846;27;20650;-63
2021/12/16 06:06:06;;;;;;;68.20;35.85;;;8.60;99.90;;;;;;5157480;27;20218;-62
2021/12/16 06:08:33;;;;;;;63.35;36.28;;;8.60;99.90;;;;;;5156842;27;20214;-62
2021/12/16 06:13:48;;;;;;;63.72;35.22;;;8.60;99.90;;;;;;5157241;27;20642;-60
2021/12/16 06:27:20;;;;;;;65.38;35.00;;;8.60;99.90;;;;;;5156753;27;20178;-62
2021/12/16 06:29:49;;;;;;;75.15;36.78;;;8.60;99.90;;;;;;5156441;27;20211;-63
2021/12/16 06:32:18;;;;;;;71.32;35.40;;;8.60;99.90;;;;;;5156278;27;20221;-62
2021/12/16 06:34:45;;;;;;;69.82;36.33;;;8.60;99.90;;;;;;5156607;27;20221;-63
2021/12/16 06:37:15;;;;;;;70.47;36.90;;;8.60;99.90;;;;;;5157445;27;20202;-60
2021/12/16 06:39:42;;;;;;;79.88;37.65;;;8.60;99.90;;;;;;5156250;27;20202;-62
2021/12/16 06:42:10;;;;;;;67.40;35.50;;;8.60;99.90;;;;;;5156500;27;20206;-62
2021/12/16 06:44:43;;;;;;;71.43;36.85;;;8.60;99.90;;;;;;5156412;27;20223;-61
2021/12/16 06:47:16;;;;;;;72.93;35.75;;;8.70;99.90;;;;;;5156462;27;20579;-62
2021/12/16 06:49:46;;;;;;;71.95;36.28;;;8.70;99.90;;;;;;5155885;27;20203;-61
2021/12/16 06:52:18;;;;;;;74.15;36.33;;;8.70;99.90;;;;;;5156912;27;20196;-62
2021/12/16 06:55:01;;;;;;;72.15;36.83;;;8.70;99.90;;;;;;5156191;27;20218;-63
2021/12/16 06:57:38;;;;;;;66.88;35.97;;;8.70;99.90;;;;;;5156481;27;20190;-61
2021/12/16 07:00:11;;;;;;;69.20;37.80;;;8.70;99.90;;;;;;5156294;27;20193;-62
2021/12/16 07:02:50;;;;;;;71.80;37.88;;;8.70;99.90;;;;;;5156394;27;20265;-62
2021/12/16 07:05:20;;;;;;;72.55;36.10;;;8.70;99.90;;;;;;5156004;27;20221;-63
2021/12/16 07:07:49;;;;;;;69.40;35.40;;;8.70;99.90;;;;;;5156333;27;20241;-62
2021/12/16 07:10:17;;;;;;;62.58;35.17;;;8.70;99.90;;;;;;5155947;27;20198;-61
2021/12/16 07:12:48;;;;;;;71.13;36.80;;;8.70;99.90;;;;;;5156706;27;20206;-62
2021/12/16 07:15:18;;;;;;;62.60;33.60;;;8.70;99.90;;;;;;5160743;27;20261;-61
2021/12/16 07:17:45;;;;;;;61.00;34.60;;;8.70;99.90;;;;;;5160026;27;20194;-62
2021/12/16 07:20:16;;;;;;;58.38;33.10;;;8.70;99.90;;;;;;5160219;27;20688;-62
2021/12/16 07:22:43;;;;;;;62.67;34.28;;;8.70;99.90;;;;;;5161330;27;20638;-61
2021/12/16 07:25:12;;;;;;;64.05;35.65;;;8.70;99.90;;;;;;5161393;27;20225;-61
2021/12/16 07:27:39;;;;;;;64.47;36.55;;;8.70;99.90;;;;;;5163226;27;20210;-63
2021/12/16 07:30:10;;;;;;;62.15;34.38;;;8.80;99.90;;;;;;5164864;27;20744;-60
2021/12/16 07:32:37;;;;;;;60.45;34.67;;;8.80;99.90;;;;;;5170115;27;20189;-62
2021/12/16 07:35:07;;;;;;;68.30;35.08;;;8.80;99.90;;;;;;5167899;27;20757;-62
2021/12/16 07:37:35;;;;;;;74.13;35.92;;;8.80;99.90;;;;;;5164323;27;20681;-62
2021/12/16 07:40:06;;;;;;;75.95;38.35;;;8.80;99.90;;;;;;5157791;27;20685;-63
2021/12/16 07:42:44;;;;;;;67.43;36.55;;;8.80;99.90;;;;;;5157285;27;20183;-61
2021/12/16 07:45:12;;;;;;;66.15;34.38;;;8.80;99.90;;;;;;5160241;27;20271;-62
2021/12/16 07:47:40;;;;;;;62.72;35.03;;;8.90;99.90;;;;;;5159164;27;20542;-62
2021/12/16 07:50:09;;;;;;;67.05;34.53;;;8.90;99.90;;;;;;5156514;27;20194;-62
2021/12/16 07:52:37;;;;;;;69.53;37.28;;;8.90;99.90;;;;;;5156134;27;20212;-61
2021/12/16 07:55:05;;;;;;;61.40;35.33;;;8.90;99.90;;;;;;5157172;27;20411;-61
2021/12/16 07:57:34;;;;;;;71.78;36.08;;;8.90;99.90;;;;;;5159721;27;20202;-63
2021/12/16 08:00:01;;;;;;;65.00;35.83;;;8.90;99.90;;;;;;5158901;27;20194;-62
2021/12/16 08:02:28;;;;;;;59.10;34.88;;;8.90;99.90;;;;;;5157529;27;20198;-62
2021/12/16 08:04:55;;;;;;;72.53;35.25;;;8.90;99.90;;;;;;5156842;27;20226;-61
2021/12/16 08:07:22;;;;;;;67.13;35.60;;;8.90;99.90;;;;;;5156121;27;20206;-62
2021/12/16 08:09:50;;;;;;;72.28;35.30;;;8.90;99.90;;;;;;5156348;27;20712;-62
2021/12/16 08:12:19;;;;;;;58.97;33.55;;;8.90;99.90;;;;;;5156657;27;20202;-63
2021/12/16 08:14:48;;;;;;;58.13;32.75;;;9.00;99.90;;;;;;5156436;27;20314;-62
2021/12/16 08:17:16;;;;;;;68.05;35.45;;;9.00;99.90;;;;;;5155580;27;20202;-62
2021/12/16 08:19:45;;;;;;;62.08;34.30;;;9.00;99.90;;;;;;5155915;27;20191;-62
2021/12/16 08:22:13;;;;;;;60.63;34.47;;;9.00;99.90;;;;;;5155553;27;20553;-63
2021/12/16 08:24:40;;;;;;;58.78;34.72;;;9.10;99.90;;;;;;5157719;27;20222;-62
2021/12/16 08:27:08;;;;;;;66.45;32.97;;;9.10;99.90;;;;;;5164776;27;20210;-63
2021/12/16 08:29:35;;;;;;;61.17;34.85;;;9.10;99.90;;;;;;5161074;27;20225;-63
2021/12/16 08:32:05;;;;;;;70.90;37.22;;;9.10;99.90;;;;;;5158291;27;20285;-62
2021/12/16 08:34:33;;;;;;;65.68;32.63;;;9.10;99.90;;;;;;5155546;27;20771;-61
2021/12/16 08:37:02;;;;;;;58.03;34.60;;;9.10;99.90;;;;;;5154814;27;20634;-61
2021/12/16 08:39:29;;;;;;;67.40;35.70;;;9.10;99.90;;;;;;5156676;27;20243;-62
2021/12/16 08:41:59;;;;;;;64.03;35.70;;;9.10;99.90;;;;;;5156161;27;20206;-62
2021/12/16 08:44:27;;;;;;;60.03;33.08;;;9.10;99.90;;;;;;5155919;27;20222;-62
2021/12/16 08:46:58;;;;;;;65.78;35.72;;;9.10;99.90;;;;;;5155322;27;20284;-63
2021/12/16 08:49:27;;;;;;;62.72;33.72;;;9.10;99.90;;;;;;5155904;27;20218;-62
2021/12/16 08:51:59;;;;;;;66.10;35.17;;;9.10;99.90;;;;;;5155629;27;20241;-63
2021/12/16 08:54:27;;;;;;;67.13;34.75;;;9.10;99.90;;;;;;5156251;27;20713;-62
2021/12/16 08:56:54;;;;;;;65.25;35.17;;;9.10;99.90;;;;;;5159664;27;20195;-62
2021/12/16 08:59:22;;;;;;;63.20;37.33;;;9.10;99.90;;;;;;5160217;27;20198;-63
2021/12/16 09:01:52;;;;;;;67.13;36.60;;;9.10;99.90;;;;;;5159227;27;20202;-62
2021/12/16 09:04:22;;;;;;;68.60;36.40;;;9.10;99.90;;;;;;5159073;27;20218;-62
2021/12/16 09:06:52;;;;;;;59.78;35.60;;;9.10;99.90;;;;;;5159187;27;20186;-61
2021/12/16 09:09:19;;;;;;;65.97;36.78;;;9.10;99.90;;;;;;5159102;27;20214;-63
2021/12/16 09:12:03;;;;;;;63.05;34.95;;;9.10;99.90;;;;;;5159053;27;20575;-62
2021/12/16 09:14:30;;;;;;;67.55;35.38;;;9.10;99.90;;;;;;5160262;27;20221;-63
2021/12/16 09:16:58;;;;;;;63.95;34.58;;;9.10;99.90;;;;;;5160432;27;20218;-62
2021/12/16 09:19:25;;;;;;;64.80;35.33;;;9.10;99.90;;;;;;5158404;27;20563;-62
2021/12/16 09:21:54;;;;;;;74.82;35.50;;;9.10;99.90;;;;;;5158317;27;20251;-63
2021/12/16 09:24:21;;;;;;;67.85;37.08;;;9.20;99.90;;;;;;5158114;27;20731;-62
2021/12/16 09:26:48;;;;;;;64.72;36.60;;;9.20;99.90;;;;;;5158282;27;20201;-61
2021/12/16 09:29:16;;;;;;;70.30;35.90;;;9.20;99.90;;;;;;5157445;27;20218;-61
2021/12/16 09:31:43;;;;;;;69.97;35.55;;;9.20;99.90;;;;;;5158992;27;20203;-61
2021/12/16 09:34:10;;;;;;;69.28;37.25;;;9.20;99.90;;;;;;5158249;27;20198;-62
2021/12/16 09:36:39;;;;;;;66.05;36.72;;;9.20;99.90;;;;;;5158318;27;20206;-63
2021/12/16 09:39:13;;;;;;;70.85;35.92;;;9.20;99.90;;;;;;5158528;27;20194;-63
2021/12/16 09:41:41;;;;;;;68.20;36.67;;;9.20;99.90;;;;;;5157748;27;20182;-62
2021/12/16 09:44:09;;;;;;;65.47;37.05;;;9.20;99.90;;;;;;5157977;27;20209;-61
2021/12/16 09:46:36;;;;;;;70.63;35.50;;;9.10;99.90;;;;;;5157831;27;20230;-63
2021/12/16 09:49:04;;;;;;;67.22;36.50;;;9.10;99.90;;;;;;5158036;27;20227;-62
2021/12/16 09:51:34;;;;;;;68.65;35.95;;;9.10;99.90;;;;;;5158261;27;20213;-62
2021/12/16 09:54:05;;;;;;;67.95;37.90;;;9.10;99.90;;;;;;5159112;27;20206;-63
2021/12/16 09:56:34;;;;;;;74.05;37.30;;;9.10;99.90;;;;;;5159127;27;20193;-60
2021/12/16 09:59:04;;;;;;;76.75;39.05;;;9.10;99.90;;;;;;5157457;27;20194;-63
2021/12/16 10:01:33;;;;;;;68.55;36.95;;;9.10;99.90;;;;;;5157546;27;20661;-62
2021/12/16 10:04:03;;;;;;;68.75;37.85;;;9.00;99.90;;;;;;5158453;27;20202;-63
2021/12/16 10:06:31;;;;;;;76.38;39.03;;;9.00;99.90;;;;;;5159290;27;20548;-63
2021/12/16 10:09:01;;;;;;;67.07;37.42;;;9.00;99.90;;;;;;5159645;27;20226;-62
2021/12/16 10:11:28;;;;;;;72.80;35.70;;;9.00;99.90;;;;;;5159222;27;20243;-61
2021/12/16 10:14:05;;;;;;;68.20;35.72;;;9.10;99.90;;;;;;5159785;27;20569;-62
2021/12/16 10:19:20;;;;;;;65.82;31.70;;;9.10;99.90;;;;;;5158246;27;20181;-62
2021/12/16 10:21:47;;;;;;;54.22;33.05;;;9.20;99.90;;;;;;5181074;22;20201;-56
2021/12/16 10:24:25;;;;;;;54.47;31.65;;;9.20;99.90;;;;;;5114933;28;20212;-60
2021/12/16 10:27:07;;;;;;;57.47;32.25;;;9.30;99.90;;;;;;5115480;28;20215;-59
2021/12/16 10:29:37;;;;;;;60.10;33.13;;;9.30;99.90;;;;;;5115401;28;20231;-59
2021/12/16 10:32:06;;;;;;;54.63;31.58;;;9.30;99.90;;;;;;5115511;28;20220;-59
2021/12/16 10:34:33;;;;;;;59.63;34.42;;;9.30;99.90;;;;;;5115970;28;20223;-59
2021/12/16 10:37:01;;;;;;;51.13;31.90;;;9.30;99.90;;;;;;5115628;28;20211;-60
2021/12/16 10:39:28;;;;;;;56.15;32.30;;;9.30;99.90;;;;;;5115624;28;20206;-59
2021/12/16 10:41:58;;;;;;;54.85;30.88;;;9.30;99.90;;;;;;5115397;28;20591;-59
2021/12/16 10:44:28;;;;;;;46.17;29.90;;;9.40;99.90;;;;;;5115417;28;20192;-59
2021/12/16 10:47:00;;;;;;;50.50;29.50;;;9.40;99.90;;;;;;5115338;28;20228;-59
2021/12/16 10:49:30;;;;;;;50.50;29.42;;;9.50;99.90;;;;;;5115213;28;20204;-60
2021/12/16 10:52:00;;;;;;;50.80;29.88;;;9.50;99.90;;;;;;5115437;28;20200;-60
2021/12/16 10:54:30;;;;;;;46.28;29.25;;;9.50;99.90;;;;;;5115361;28;20527;-61
2021/12/16 10:57:02;;;;;;;51.70;30.38;;;9.50;99.90;;;;;;5115027;28;20206;-60
2021/12/16 10:59:34;;;;;;;41.67;27.95;;;9.50;99.90;;;;;;5115212;28;20192;-60
2021/12/16 11:02:16;;;;;;;44.35;27.77;;;9.50;99.90;;;;;;5114958;28;20220;-60
2021/12/16 11:04:46;;;;;;;41.88;27.60;;;9.50;99.90;;;;;;5114762;28;20229;-60
2021/12/16 11:07:20;;;;;;;49.75;30.85;;;9.50;99.90;;;;;;5114508;28;20196;-60
2021/12/16 11:09:56;;;;;;;49.75;29.80;;;9.60;99.90;;;;;;5114607;28;20200;-60
2021/12/16 11:12:42;;;;;;;46.17;28.50;;;9.60;99.90;;;;;;5114936;28;20411;-60
2021/12/16 11:15:27;;;;;;;46.10;28.48;;;9.70;99.90;;;;;;5114747;28;20425;-60
2021/12/16 11:17:59;;;;;;;47.47;29.52;;;9.70;99.90;;;;;;5112458;28;20195;-60
2021/12/16 11:20:35;;;;;;;51.72;29.25;;;9.70;99.90;;;;;;5114602;28;20175;-60
2021/12/16 11:23:06;;;;;;;42.78;27.48;;;9.70;99.90;;;;;;5113629;28;20238;-60
2021/12/16 11:25:36;;;;;;;53.50;29.70;;;9.70;99.90;;;;;;5113980;28;20187;-60
2021/12/16 11:28:17;;;;;;;45.25;26.88;;;9.70;99.90;;;;;;5114149;28;20554;-60
2021/12/16 11:30:54;;;;;;;40.83;24.58;;;9.70;99.90;;;;;;5114212;28;20211;-61
2021/12/16 11:33:29;;;;;;;43.87;28.17;;;9.70;99.90;;;;;;5114181;28;20222;-61
2021/12/16 11:36:04;;;;;;;46.20;27.83;;;9.80;99.90;;;;;;5113867;28;20421;-60
2021/12/16 11:38:35;;;;;;;47.05;27.48;;;9.70;99.90;;;;;;5113491;28;20187;-60
2021/12/16 11:41:13;;;;;;;45.20;27.47;;;9.70;99.90;;;;;;5113549;28;20200;-60
2021/12/16 11:43:49;;;;;;;41.05;26.02;;;9.70;99.90;;;;;;5113884;28;20461;-60
2021/12/16 11:46:23;;;;;;;40.25;25.40;;;9.80;99.90;;;;;;5113450;28;20255;-62
2021/12/16 11:48:55;;;;;;;50.50;25.93;;;9.80;99.90;;;;;;5113535;28;20184;-60
2021/12/16 11:51:27;;;;;;;45.93;25.80;;;9.80;99.90;;;;;;5113386;28;20913;-60
2021/12/16 11:54:00;;;;;;;42.72;24.25;;;9.70;99.90;;;;;;5113268;28;20457;-60
2021/12/16 11:56:43;;;;;;;38.88;25.30;;;9.70;99.90;;;;;;5113809;28;20191;-60
2021/12/16 11:59:11;;;;;;;41.05;25.45;;;9.70;99.90;;;;;;5113391;28;20207;-60
2021/12/16 12:01:41;;;;;;;40.80;22.67;;;9.80;99.90;;;;;;5113772;28;20203;-60
2021/12/16 12:04:11;;;;;;;36.10;24.05;;;9.80;99.90;;;;;;5113673;28;20200;-61
2021/12/16 12:06:40;;;;;;;38.70;25.10;;;9.80;99.90;;;;;;5113276;28;20639;-61
2021/12/16 12:09:09;;;;;;;40.27;25.40;;;9.80;99.90;;;;;;5113215;28;20210;-61
2021/12/16 12:11:40;;;;;;;38.45;23.50;;;9.80;99.90;;;;;;5113253;28;20441;-61
2021/12/16 12:14:09;;;;;;;36.15;24.10;;;9.80;99.90;;;;;;5113205;28;20271;-61
2021/12/16 12:16:39;;;;;;;36.70;23.73;;;9.80;99.90;;;;;;5113537;28;20574;-60
2021/12/16 12:19:14;;;;;;;34.80;24.20;;;9.90;99.90;;;;;;5113492;28;20294;-60
2021/12/16 12:21:44;;;;;;;36.80;23.23;;;9.90;99.90;;;;;;5113179;28;20444;-61
2021/12/16 12:24:15;;;;;;;33.45;22.05;;;9.90;99.90;;;;;;5113484;28;20445;-60
2021/12/16 12:26:46;;;;;;;30.77;19.48;;;9.90;99.90;;;;;;5113091;28;20192;-60
2021/12/16 12:29:17;;;;;;;29.07;18.37;;;9.90;99.90;;;;;;5114406;28;20197;-61
2021/12/16 12:31:47;;;;;;;28.58;18.92;;;9.90;99.90;;;;;;5117314;28;20442;-62
2021/12/16 12:34:16;;;;;;;27.37;18.00;;;9.90;99.90;;;;;;5117236;28;20575;-61
2021/12/16 12:36:46;;;;;;;26.50;17.35;;;9.90;99.90;;;;;;5117169;28;20444;-61
2021/12/16 12:39:17;;;;;;;26.08;17.67;;;9.80;99.90;;;;;;5117052;28;20263;-61
2021/12/16 12:41:45;;;;;;;24.60;16.33;;;9.80;99.90;;;;;;5118057;28;20188;-60
2021/12/16 12:44:12;;;;;;;27.93;17.43;;;9.80;99.90;;;;;;5117257;28;20449;-60
2021/12/16 12:46:42;;;;;;;28.67;19.23;;;9.80;99.90;;;;;;5117533;28;20456;-59
2021/12/16 12:49:13;;;;;;;30.35;19.40;;;9.80;99.90;;;;;;5117901;28;20445;-60
2021/12/16 12:51:48;;;;;;;28.05;17.90;;;9.70;99.90;;;;;;5116699;28;20184;-60
2021/12/16 12:54:25;;;;;;;36.05;19.70;;;9.70;99.90;;;;;;5117623;28;20184;-60
2021/12/16 12:56:55;;;;;;;29.20;19.13;;;9.70;99.90;;;;;;5116983;28;20184;-60
2021/12/16 12:59:33;;;;;;;25.17;17.90;;;9.70;99.90;;;;;;5117211;28;20203;-60
2021/12/16 13:02:01;;;;;;;25.77;16.55;;;9.70;99.90;;;;;;5117451;28;20461;-60
2021/12/16 13:04:33;;;;;;;26.38;16.25;;;9.70;99.90;;;;;;5118189;28;20294;-59
2021/12/16 13:07:07;;;;;;;25.77;16.80;;;9.70;99.90;;;;;;5117229;28;20180;-60
2021/12/16 13:09:40;;;;;;;27.58;18.10;;;9.70;99.90;;;;;;5116691;28;20188;-60
2021/12/16 13:12:40;;;;;;;26.52;16.77;;;9.70;99.90;;;;;;5116643;28;20223;-60
2021/12/16 13:15:33;;;;;;;21.48;15.85;;;9.80;99.90;;;;;;5115464;28;20280;-60
2021/12/16 13:24:01;;;;;;;30.63;18.45;;;9.70;99.90;;;;;;5116353;28;20311;-60
2021/12/16 13:26:42;;;;;;;24.10;16.63;;;9.70;99.90;;;;;;5115761;28;20644;-60
2021/12/16 13:29:32;;;;;;;24.77;15.90;;;9.70;99.90;;;;;;5116299;28;20255;-60
2021/12/16 13:32:12;;;;;;;28.25;15.48;;;9.70;99.90;;;;;;5116164;28;20194;-60
2021/12/16 13:34:49;;;;;;;22.98;15.40;;;9.60;99.90;;;;;;5116947;28;20201;-60
2021/12/16 13:37:24;;;;;;;24.42;15.82;;;9.60;99.90;;;;;;5116948;28;20183;-60
2021/12/16 13:39:59;;;;;;;25.70;17.40;;;9.70;99.90;;;;;;5116003;28;20232;-61
2021/12/16 13:42:41;;;;;;;23.08;16.35;;;9.70;99.90;;;;;;5116199;28;20219;-60
2021/12/16 13:45:13;;;;;;;26.95;16.58;;;9.70;99.90;;;;;;5116770;28;20180;-59
2021/12/16 13:47:58;;;;;;;25.77;16.10;;;9.70;99.90;;;;;;5116812;28;20216;-59
2021/12/16 14:03:10;;;;;;;24.38;17.02;;;9.70;99.90;;;;;;5113606;28;20207;-64
2021/12/16 14:06:11;;;;;;;25.23;16.48;;;9.70;99.90;;;;;;5116553;28;20202;-64
2021/12/16 14:15:16;;;;;;;24.85;15.52;;;9.70;99.90;;;;;;5115860;28;20262;-63
2021/12/16 14:17:57;;;;;;;23.63;16.10;;;9.70;99.90;;;;;;5116829;28;20251;-64
2021/12/16 14:23:28;;;;;;;21.60;14.25;;;9.70;99.90;;;;;;5116574;28;20599;-64
2021/12/16 14:42:05;;;;;;;19.98;13.77;;;9.60;99.90;;;;;;5103502;28;20200;-64
2021/12/16 14:50:56;;;;;;;22.52;14.90;;;9.70;99.90;;;;;;5116460;28;20692;-64
2021/12/16 14:57:04;;;;;;;;;;;;;;;;;;;;;
2021/12/16 15:08:54;;;;;;;29.13;17.10;;;9.60;99.90;;;;;;5033732;28;20269;-64
2021/12/16 15:11:32;;;;;;;23.02;16.05;;;9.60;99.90;;;;;;5033742;28;20210;-64
2021/12/16 15:31:36;;;;;;;26.58;16.63;;;9.60;99.90;;;;;;5053660;28;20456;-64
2021/12/16 15:44:18;;;;;;;22.52;14.68;;;9.50;99.90;;;;;;5012374;28;20238;-64
2021/12/16 15:49:58;;;;;;;23.80;15.82;;;9.50;99.90;;;;;;5115491;28;20325;-63
2021/12/16 15:52:26;;;;;;;24.00;15.30;;;9.50;99.90;;;;;;5115119;28;20227;-64
2021/12/16 15:58:28;;;;;;;23.27;14.85;;;9.50;99.90;;;;;;5115987;28;20366;-64
2021/12/16 16:01:10;;;;;;;21.50;15.65;;;9.50;99.90;;;;;;5115537;28;20191;-64
2021/12/16 16:03:42;;;;;;;24.58;16.05;;;9.50;99.90;;;;;;5116271;28;20223;-64
2021/12/16 16:06:19;;;;;;;21.80;14.55;;;9.50;99.90;;;;;;5114432;28;20219;-64
2021/12/16 16:08:48;;;;;;;26.27;14.75;;;9.50;99.90;;;;;;5113520;28;20239;-64
2021/12/16 16:20:49;;;;;;;26.20;15.40;;;9.50;99.90;;;;;;5080882;28;20645;-64
2021/12/16 16:23:18;;;;;;;22.77;16.70;;;9.50;99.90;;;;;;5127203;22;20228;-63
2021/12/16 16:25:46;;;;;;;24.60;16.02;;;9.50;99.90;;;;;;5113395;28;20199;-63
2021/12/16 16:28:15;;;;;;;23.75;15.63;;;9.40;99.90;;;;;;5113379;28;20196;-64
2021/12/16 16:30:45;;;;;;;25.30;16.92;;;9.50;99.90;;;;;;5112837;28;20272;-63
2021/12/16 16:33:16;;;;;;;26.13;17.88;;;9.50;99.90;;;;;;5113277;28;20223;-62
2021/12/16 16:35:50;;;;;;;27.02;17.40;;;9.40;99.90;;;;;;5112888;28;20200;-63
2021/12/16 16:38:20;;;;;;;24.17;17.15;;;9.40;99.90;;;;;;5112729;28;20198;-62